Monday, December 18, 2017, 5:09 PM EST
Back to Local

KOWD, Norwood Memorial Airport

Location: Norwood, MA, United States Lat: 42.183
Local Time: 5:09 PM EST (22:09 GMT) Lon: -71.167
Time Zone: US/Eastern Elev: 49 ft

Show me the last for .
Show Decoded

2017-12-18 16:53 METAR KOWD 182153Z 00000KT 10SM BKN010 BKN019 OVC070 02/M03 A2996 RMK AO2 SLP145
                 T00171028 =
2017-12-18 15:53 METAR KOWD 182053Z 08003KT 10SM BKN015 OVC023 02/M03 A2997 RMK AO2 SLP149
                 T00171033 56026 =
2017-12-18 14:53 METAR KOWD 181953Z 17003KT 10SM OVC016 02/M04 A2999 RMK AO2 SLP156 T00171039 =
2017-12-18 14:29 METAR KOWD 181929Z 00000KT 10SM BKN017 BKN027 OVC037 02/M05 A2999 RMK AO2
                 T00171050 =
2017-12-18 14:09 METAR KOWD 181909Z 16003KT 10SM FEW019 BKN035 OVC065 02/M06 A3000 RMK AO2
                 T00171056 =
2017-12-18 13:53 METAR KOWD 181853Z 17005KT 10SM BKN023 OVC035 01/M06 A3000 RMK AO2 SLP161
                 T00111056 =
2017-12-18 12:53 METAR KOWD 181753Z 18004KT 10SM OVC023 01/M06 A3005 RMK AO2 SLP175 T00111061
                 10011 21033 56035 =
2017-12-18 12:26 METAR KOWD 181726Z 00000KT 10SM BKN024 OVC060 01/M07 A3005 RMK AO2 T00111072 =
2017-12-18 11:53 METAR KOWD 181653Z 15004KT 10SM BKN060 OVC080 01/M07 A3007 RMK AO2 SLP181
                 T00111072 =
2017-12-18 10:53 METAR KOWD 181553Z 18005KT 10SM SCT025 BKN049 OVC085 00/M09 A3011 RMK AO2 SLP195
                 T00001094 =
2017-12-18 09:53 METAR KOWD 181453Z 00000KT 10SM OVC026 M01/M09 A3015 RMK AO2 SLP210 T10111094
                 58014 =
2017-12-18 08:53 METAR KOWD 181353Z 00000KT 10SM OVC023 M03/M09 A3017 RMK AO2 SLP218 T10281089 =
2017-12-18 07:53 METAR KOWD 181253Z 00000KT 10SM OVC024 M03/M09 A3018 RMK AO2 SLP221 T10331089 =
2017-12-18 06:53 METAR KOWD 181153Z 00000KT 10SM OVC027 M03/M09 A3019 RMK AO2 SLP224 T10331094
                 11033 21067 56008 =
2017-12-18 05:53 METAR KOWD 181053Z AUTO 00000KT 10SM OVC029 M04/M09 A3019 RMK AO2 SLP224
                 T10391094 =
2017-12-18 05:40 METAR KOWD 181040Z AUTO 00000KT 10SM BKN029 OVC050 M04/M09 A3019 RMK AO2
                 T10391094 =
2017-12-18 04:53 METAR KOWD 180953Z AUTO 00000KT 10SM OVC060 M04/M09 A3019 RMK AO2 SLP225
                 T10391089 =
2017-12-18 03:53 METAR KOWD 180853Z AUTO 00000KT 10SM BKN075 OVC095 M04/M09 A3022 RMK AO2 SLP233
                 T10441094 58008 =
2017-12-18 02:53 METAR KOWD 180753Z AUTO 00000KT 10SM SCT060 BKN085 M05/M09 A3025 RMK AO2 SLP243
                 T10501089 =
2017-12-18 01:53 METAR KOWD 180653Z AUTO 00000KT 10SM CLR M06/M09 A3024 RMK AO2 SLP241 T10561094
                 =
2017-12-18 00:53 METAR KOWD 180553Z AUTO 00000KT 10SM CLR M07/M09 A3024 RMK AO2 SLP241 T10721094
                 11039 21083 56011 =
2017-12-17 23:53 METAR KOWD 180453Z AUTO 00000KT 10SM CLR M07/M11 A3025 RMK AO2 SLP245 T10721106
                 410061133 =
2017-12-17 22:53 METAR KOWD 180353Z AUTO 00000KT 10SM CLR M07/M09 A3026 RMK AO2 SLP246 T10671094
                 =
2017-12-17 21:53 METAR KOWD 180253Z AUTO 00000KT 10SM CLR M05/M09 A3027 RMK AO2 SLP251 T10501094
                 50001 =
2017-12-17 20:53 METAR KOWD 180153Z AUTO 00000KT 10SM CLR M04/M11 A3028 RMK AO2 SLP255 T10391111
                 =
2017-12-17 19:53 METAR KOWD 180053Z 00000KT 10SM CLR M05/M11 A3028 RMK AO2 SLP256 T10501106 =
2017-12-17 18:53 METAR KOWD 172353Z 00000KT 10SM CLR M05/M11 A3027 RMK AO2 SLP251 T10501106 11006
                 21061 53009 =
2017-12-17 17:53 METAR KOWD 172253Z 00000KT 10SM CLR M06/M11 A3025 RMK AO2 SLP245 T10561111 =

Support USWX by starting your Amazon purchase here.